Tuttle, Idaho
Current Conditions -  °F | °C
As of 12:53 PM on Monday 24 Nov 2014 (Local Time) from KJER Reporting Station
Clear Clear  
Wind Chill: 30°   Ceiling: Unl
Heat Index: 40°   Visibility: 10mi
Dew Point: 25°   Wind: 23mph
Humidity: 55%   Direction: 240°WSW
Pressure: 30.39"   Gusts: 32mph
Location:  43.0634°N, 114.867°W
Report Text: KJER 241953Z AUTO 24020G28KT 10SM CLR 04/M04 A3039 RMK AO2 PK WND 25028/1947 SLP307 T00441039
Loading
Personal Weather Stations






























Interactive Weather Map New forecast layout! Learn more

10-Day Weather Forecast

Advertisements
Track Severe Weather on mobile